sensor_id;sensor_type;location;lat;lon;timestamp;P1;durP1;ratioP1;P2;durP2;ratioP2
45382;SDS011;42455;51.660;5.824;2023-04-23T00:02:29;69.0;;;50.0;;
45382;SDS011;42455;51.660;5.824;2023-04-23T00:07:35;69.0;;;49.0;;
45382;SDS011;42455;51.660;5.824;2023-04-23T00:12:41;68.0;;;49.5;;
45382;SDS011;42455;51.660;5.824;2023-04-23T00:17:47;68.5;;;49.0;;
45382;SDS011;42455;51.660;5.824;2023-04-23T00:28:00;70.5;;;51.0;;
45382;SDS011;42455;51.660;5.824;2023-04-23T00:33:06;69.0;;;50.5;;
45382;SDS011;42455;51.660;5.824;2023-04-23T00:38:11;70.0;;;51.0;;
45382;SDS011;42455;51.660;5.824;2023-04-23T00:43:17;67.0;;;50.0;;
45382;SDS011;42455;51.660;5.824;2023-04-23T00:48:24;63.5;;;48.5;;
45382;SDS011;42455;51.660;5.824;2023-04-23T00:53:29;64.0;;;48.0;;
45382;SDS011;42455;51.660;5.824;2023-04-23T00:58:35;64.0;;;48.0;;
45382;SDS011;42455;51.660;5.824;2023-04-23T01:03:41;63.0;;;47.0;;
45382;SDS011;42455;51.660;5.824;2023-04-23T01:08:47;59.0;;;45.0;;
45382;SDS011;42455;51.660;5.824;2023-04-23T01:13:54;57.0;;;43.5;;
45382;SDS011;42455;51.660;5.824;2023-04-23T01:19:00;57.0;;;43.0;;
45382;SDS011;42455;51.660;5.824;2023-04-23T01:24:06;54.0;;;42.0;;
45382;SDS011;42455;51.660;5.824;2023-04-23T01:29:12;55.0;;;41.0;;
45382;SDS011;42455;51.660;5.824;2023-04-23T01:34:18;51.0;;;40.0;;
45382;SDS011;42455;51.660;5.824;2023-04-23T01:39:25;49.0;;;39.0;;
45382;SDS011;42455;51.660;5.824;2023-04-23T01:44:31;50.0;;;39.0;;
45382;SDS011;42455;51.660;5.824;2023-04-23T01:49:37;46.5;;;38.0;;
45382;SDS011;42455;51.660;5.824;2023-04-23T01:54:43;43.5;;;36.0;;
45382;SDS011;42455;51.660;5.824;2023-04-23T01:59:49;42.0;;;36.0;;
45382;SDS011;42455;51.660;5.824;2023-04-23T02:04:56;44.0;;;36.0;;
45382;SDS011;42455;51.660;5.824;2023-04-23T02:10:02;40.0;;;33.5;;
45382;SDS011;42455;51.660;5.824;2023-04-23T02:15:08;39.0;;;32.0;;
45382;SDS011;42455;51.660;5.824;2023-04-23T02:20:14;37.0;;;32.0;;
45382;SDS011;42455;51.660;5.824;2023-04-23T02:25:21;38.0;;;32.0;;
45382;SDS011;42455;51.660;5.824;2023-04-23T02:30:27;41.0;;;34.0;;
45382;SDS011;42455;51.660;5.824;2023-04-23T02:35:33;40.0;;;34.0;;
45382;SDS011;42455;51.660;5.824;2023-04-23T02:40:38;40.0;;;33.0;;
45382;SDS011;42455;51.660;5.824;2023-04-23T02:45:44;38.0;;;32.0;;
45382;SDS011;42455;51.660;5.824;2023-04-23T02:50:49;37.0;;;33.0;;
45382;SDS011;42455;51.660;5.824;2023-04-23T02:55:56;38.0;;;32.5;;
45382;SDS011;42455;51.660;5.824;2023-04-23T03:01:02;38.0;;;32.0;;
45382;SDS011;42455;51.660;5.824;2023-04-23T03:06:08;36.0;;;32.0;;
45382;SDS011;42455;51.660;5.824;2023-04-23T03:11:14;38.0;;;32.0;;
45382;SDS011;42455;51.660;5.824;2023-04-23T03:16:21;35.0;;;31.5;;
45382;SDS011;42455;51.660;5.824;2023-04-23T03:21:27;36.0;;;32.0;;
45382;SDS011;42455;51.660;5.824;2023-04-23T03:26:33;35.0;;;31.0;;
45382;SDS011;42455;51.660;5.824;2023-04-23T03:31:39;34.0;;;30.0;;
45382;SDS011;42455;51.660;5.824;2023-04-23T03:36:45;34.0;;;30.0;;
45382;SDS011;42455;51.660;5.824;2023-04-23T03:41:52;33.0;;;30.0;;
45382;SDS011;42455;51.660;5.824;2023-04-23T03:46:58;32.0;;;29.0;;
45382;SDS011;42455;51.660;5.824;2023-04-23T03:52:04;31.0;;;28.0;;
45382;SDS011;42455;51.660;5.824;2023-04-23T03:57:10;32.0;;;28.0;;
45382;SDS011;42455;51.660;5.824;2023-04-23T04:02:17;31.0;;;28.0;;
45382;SDS011;42455;51.660;5.824;2023-04-23T04:07:23;30.0;;;27.0;;
45382;SDS011;42455;51.660;5.824;2023-04-23T04:12:29;31.0;;;28.0;;
45382;SDS011;42455;51.660;5.824;2023-04-23T04:17:35;29.0;;;26.0;;
45382;SDS011;42455;51.660;5.824;2023-04-23T04:22:41;30.0;;;27.0;;
45382;SDS011;42455;51.660;5.824;2023-04-23T04:27:47;29.0;;;26.0;;
45382;SDS011;42455;51.660;5.824;2023-04-23T04:32:54;27.0;;;25.0;;
45382;SDS011;42455;51.660;5.824;2023-04-23T04:37:59;27.0;;;25.0;;
45382;SDS011;42455;51.660;5.824;2023-04-23T04:43:05;27.0;;;24.0;;
45382;SDS011;42455;51.660;5.824;2023-04-23T04:48:10;26.0;;;23.0;;
45382;SDS011;42455;51.660;5.824;2023-04-23T04:53:17;25.0;;;23.0;;
45382;SDS011;42455;51.660;5.824;2023-04-23T04:58:23;24.0;;;22.0;;
45382;SDS011;42455;51.660;5.824;2023-04-23T05:03:29;24.0;;;21.5;;
45382;SDS011;42455;51.660;5.824;2023-04-23T05:08:35;24.0;;;21.5;;
45382;SDS011;42455;51.660;5.824;2023-04-23T05:13:42;24.0;;;21.0;;
45382;SDS011;42455;51.660;5.824;2023-04-23T05:18:48;22.0;;;20.0;;
45382;SDS011;42455;51.660;5.824;2023-04-23T05:23:54;23.0;;;21.0;;
45382;SDS011;42455;51.660;5.824;2023-04-23T05:29:00;22.0;;;20.0;;
45382;SDS011;42455;51.660;5.824;2023-04-23T05:34:06;22.0;;;20.0;;
45382;SDS011;42455;51.660;5.824;2023-04-23T05:39:12;22.0;;;19.0;;
45382;SDS011;42455;51.660;5.824;2023-04-23T05:44:19;21.0;;;19.0;;
45382;SDS011;42455;51.660;5.824;2023-04-23T05:49:25;22.0;;;20.0;;
45382;SDS011;42455;51.660;5.824;2023-04-23T05:54:31;21.0;;;19.0;;
45382;SDS011;42455;51.660;5.824;2023-04-23T05:59:37;22.0;;;20.0;;
45382;SDS011;42455;51.660;5.824;2023-04-23T06:04:44;21.0;;;19.0;;
45382;SDS011;42455;51.660;5.824;2023-04-23T06:09:50;21.0;;;19.0;;
45382;SDS011;42455;51.660;5.824;2023-04-23T06:14:56;20.0;;;18.0;;
45382;SDS011;42455;51.660;5.824;2023-04-23T06:20:02;19.0;;;17.5;;
45382;SDS011;42455;51.660;5.824;2023-04-23T06:25:08;19.0;;;17.0;;
45382;SDS011;42455;51.660;5.824;2023-04-23T06:30:15;18.0;;;17.0;;
45382;SDS011;42455;51.660;5.824;2023-04-23T06:35:20;18.0;;;16.0;;
45382;SDS011;42455;51.660;5.824;2023-04-23T06:40:26;16.0;;;15.0;;
45382;SDS011;42455;51.660;5.824;2023-04-23T06:45:32;17.0;;;15.0;;
45382;SDS011;42455;51.660;5.824;2023-04-23T06:50:38;16.0;;;14.0;;
45382;SDS011;42455;51.660;5.824;2023-04-23T06:55:45;15.0;;;13.0;;
45382;SDS011;42455;51.660;5.824;2023-04-23T07:00:51;14.0;;;12.0;;
45382;SDS011;42455;51.660;5.824;2023-04-23T07:05:57;13.0;;;12.0;;
45382;SDS011;42455;51.660;5.824;2023-04-23T07:11:03;12.0;;;11.0;;
45382;SDS011;42455;51.660;5.824;2023-04-23T07:16:10;12.0;;;11.0;;
45382;SDS011;42455;51.660;5.824;2023-04-23T07:21:16;11.0;;;10.0;;
45382;SDS011;42455;51.660;5.824;2023-04-23T07:26:22;10.0;;;9.0;;
45382;SDS011;42455;51.660;5.824;2023-04-23T07:31:28;10.0;;;9.0;;
45382;SDS011;42455;51.660;5.824;2023-04-23T07:36:34;10.0;;;9.0;;
45382;SDS011;42455;51.660;5.824;2023-04-23T07:41:41;10.0;;;9.0;;
45382;SDS011;42455;51.660;5.824;2023-04-23T07:46:47;9.0;;;8.0;;
45382;SDS011;42455;51.660;5.824;2023-04-23T07:51:53;9.0;;;8.0;;
45382;SDS011;42455;51.660;5.824;2023-04-23T07:56:59;8.0;;;7.0;;
45382;SDS011;42455;51.660;5.824;2023-04-23T08:02:05;7.0;;;6.0;;
45382;SDS011;42455;51.660;5.824;2023-04-23T08:07:12;7.0;;;6.0;;
45382;SDS011;42455;51.660;5.824;2023-04-23T08:12:18;7.0;;;5.0;;
45382;SDS011;42455;51.660;5.824;2023-04-23T08:17:24;7.0;;;5.0;;
45382;SDS011;42455;51.660;5.824;2023-04-23T08:22:29;6.0;;;4.0;;
45382;SDS011;42455;51.660;5.824;2023-04-23T08:27:35;7.0;;;4.0;;
45382;SDS011;42455;51.660;5.824;2023-04-23T08:32:41;6.0;;;4.0;;
45382;SDS011;42455;51.660;5.824;2023-04-23T08:37:47;8.0;;;4.0;;
45382;SDS011;42455;51.660;5.824;2023-04-23T08:43:00;6.0;;;3.0;;
45382;SDS011;42455;51.660;5.824;2023-04-23T08:47:59;6.0;;;3.0;;
45382;SDS011;42455;51.660;5.824;2023-04-23T08:53:05;6.5;;;3.0;;
45382;SDS011;42455;51.660;5.824;2023-04-23T08:58:11;6.0;;;2.0;;
45382;SDS011;42455;51.660;5.824;2023-04-23T09:03:17;4.0;;;2.0;;
45382;SDS011;42455;51.660;5.824;2023-04-23T09:08:23;6.0;;;2.0;;
45382;SDS011;42455;51.660;5.824;2023-04-23T09:13:29;5.0;;;3.0;;
45382;SDS011;42455;51.660;5.824;2023-04-23T09:18:36;4.0;;;2.0;;
45382;SDS011;42455;51.660;5.824;2023-04-23T09:23:42;6.0;;;2.0;;
45382;SDS011;42455;51.660;5.824;2023-04-23T09:28:49;4.0;;;2.0;;
45382;SDS011;42455;51.660;5.824;2023-04-23T09:33:54;6.0;;;2.0;;
45382;SDS011;42455;51.660;5.824;2023-04-23T09:39:00;4.5;;;1.0;;
45382;SDS011;42455;51.660;5.824;2023-04-23T09:44:07;4.0;;;2.0;;
45382;SDS011;42455;51.660;5.824;2023-04-23T09:49:13;5.0;;;1.0;;
45382;SDS011;42455;51.660;5.824;2023-04-23T09:54:20;5.0;;;2.0;;
45382;SDS011;42455;51.660;5.824;2023-04-23T09:59:27;5.0;;;2.0;;
45382;SDS011;42455;51.660;5.824;2023-04-23T10:04:32;4.0;;;2.0;;
45382;SDS011;42455;51.660;5.824;2023-04-23T10:09:39;4.0;;;1.0;;
45382;SDS011;42455;51.660;5.824;2023-04-23T10:14:44;4.0;;;2.0;;
45382;SDS011;42455;51.660;5.824;2023-04-23T10:19:50;5.0;;;1.5;;
45382;SDS011;42455;51.660;5.824;2023-04-23T10:24:59;4.0;;;1.0;;
45382;SDS011;42455;51.660;5.824;2023-04-23T10:30:02;4.0;;;1.0;;
45382;SDS011;42455;51.660;5.824;2023-04-23T10:35:07;5.0;;;1.0;;
45382;SDS011;42455;51.660;5.824;2023-04-23T10:40:13;4.0;;;1.0;;
45382;SDS011;42455;51.660;5.824;2023-04-23T10:45:19;4.0;;;1.0;;
45382;SDS011;42455;51.660;5.824;2023-04-23T10:50:26;4.0;;;1.0;;
45382;SDS011;42455;51.660;5.824;2023-04-23T10:55:32;4.0;;;1.0;;
45382;SDS011;42455;51.660;5.824;2023-04-23T11:00:45;5.0;;;1.0;;
45382;SDS011;42455;51.660;5.824;2023-04-23T11:05:44;4.0;;;2.0;;
45382;SDS011;42455;51.660;5.824;2023-04-23T11:10:54;4.0;;;2.0;;
45382;SDS011;42455;51.660;5.824;2023-04-23T11:16:12;4.5;;;2.0;;
45382;SDS011;42455;51.660;5.824;2023-04-23T11:21:03;4.0;;;1.0;;
45382;SDS011;42455;51.660;5.824;2023-04-23T11:26:09;4.0;;;1.0;;
45382;SDS011;42455;51.660;5.824;2023-04-23T11:31:15;2.0;;;1.0;;
45382;SDS011;42455;51.660;5.824;2023-04-23T11:41:27;3.0;;;1.0;;
45382;SDS011;42455;51.660;5.824;2023-04-23T11:46:34;3.0;;;1.0;;
45382;SDS011;42455;51.660;5.824;2023-04-23T11:51:40;3.0;;;1.0;;
45382;SDS011;42455;51.660;5.824;2023-04-23T11:56:46;4.0;;;1.0;;
45382;SDS011;42455;51.660;5.824;2023-04-23T12:01:53;3.0;;;1.0;;
45382;SDS011;42455;51.660;5.824;2023-04-23T12:06:58;3.5;;;1.0;;
45382;SDS011;42455;51.660;5.824;2023-04-23T12:12:05;3.0;;;1.0;;
45382;SDS011;42455;51.660;5.824;2023-04-23T12:17:11;3.0;;;1.0;;
45382;SDS011;42455;51.660;5.824;2023-04-23T12:22:16;1.0;;;1.0;;
45382;SDS011;42455;51.660;5.824;2023-04-23T12:27:22;3.0;;;1.0;;
45382;SDS011;42455;51.660;5.824;2023-04-23T12:32:28;2.0;;;1.0;;
45382;SDS011;42455;51.660;5.824;2023-04-23T12:37:35;3.0;;;1.0;;
45382;SDS011;42455;51.660;5.824;2023-04-23T12:42:40;3.5;;;1.0;;
45382;SDS011;42455;51.660;5.824;2023-04-23T12:47:46;2.0;;;1.0;;
45382;SDS011;42455;51.660;5.824;2023-04-23T12:52:52;2.5;;;1.0;;
45382;SDS011;42455;51.660;5.824;2023-04-23T13:03:05;4.0;;;1.0;;
45382;SDS011;42455;51.660;5.824;2023-04-23T13:08:11;2.0;;;1.0;;
45382;SDS011;42455;51.660;5.824;2023-04-23T13:13:17;5.0;;;1.0;;
45382;SDS011;42455;51.660;5.824;2023-04-23T13:18:24;2.0;;;1.0;;
45382;SDS011;42455;51.660;5.824;2023-04-23T13:23:30;4.0;;;1.0;;
45382;SDS011;42455;51.660;5.824;2023-04-23T13:28:36;2.0;;;1.0;;
45382;SDS011;42455;51.660;5.824;2023-04-23T13:33:42;2.0;;;1.0;;
45382;SDS011;42455;51.660;5.824;2023-04-23T13:38:48;3.0;;;1.0;;
45382;SDS011;42455;51.660;5.824;2023-04-23T13:43:55;2.5;;;1.0;;
45382;SDS011;42455;51.660;5.824;2023-04-23T13:49:01;3.0;;;1.0;;
45382;SDS011;42455;51.660;5.824;2023-04-23T13:54:07;2.5;;;1.0;;
45382;SDS011;42455;51.660;5.824;2023-04-23T13:59:13;3.0;;;1.0;;
45382;SDS011;42455;51.660;5.824;2023-04-23T14:04:20;2.0;;;1.0;;
45382;SDS011;42455;51.660;5.824;2023-04-23T14:09:26;2.5;;;1.0;;
45382;SDS011;42455;51.660;5.824;2023-04-23T14:14:32;3.5;;;1.0;;
45382;SDS011;42455;51.660;5.824;2023-04-23T14:19:38;1.0;;;1.0;;
45382;SDS011;42455;51.660;5.824;2023-04-23T14:24:50;2.0;;;1.0;;
45382;SDS011;42455;51.660;5.824;2023-04-23T14:29:50;3.0;;;1.0;;
45382;SDS011;42455;51.660;5.824;2023-04-23T14:34:55;2.0;;;1.0;;
45382;SDS011;42455;51.660;5.824;2023-04-23T14:40:01;3.0;;;1.0;;
45382;SDS011;42455;51.660;5.824;2023-04-23T14:45:07;4.0;;;1.0;;
45382;SDS011;42455;51.660;5.824;2023-04-23T14:50:13;1.5;;;0.5;;
45382;SDS011;42455;51.660;5.824;2023-04-23T14:55:19;4.0;;;1.0;;
45382;SDS011;42455;51.660;5.824;2023-04-23T15:00:25;3.0;;;1.0;;
45382;SDS011;42455;51.660;5.824;2023-04-23T15:05:31;2.0;;;1.0;;
45382;SDS011;42455;51.660;5.824;2023-04-23T15:10:37;2.0;;;1.0;;
45382;SDS011;42455;51.660;5.824;2023-04-23T15:15:48;2.0;;;1.0;;
45382;SDS011;42455;51.660;5.824;2023-04-23T15:20:50;2.0;;;1.0;;
45382;SDS011;42455;51.660;5.824;2023-04-23T15:25:56;3.0;;;1.0;;
45382;SDS011;42455;51.660;5.824;2023-04-23T15:31:02;2.0;;;1.0;;
45382;SDS011;42455;51.660;5.824;2023-04-23T15:36:08;3.0;;;1.0;;
45382;SDS011;42455;51.660;5.824;2023-04-23T15:41:14;2.0;;;1.0;;
45382;SDS011;42455;51.660;5.824;2023-04-23T15:51:27;2.0;;;1.0;;
45382;SDS011;42455;51.660;5.824;2023-04-23T15:56:33;2.0;;;1.0;;
45382;SDS011;42455;51.660;5.824;2023-04-23T16:01:39;2.0;;;1.0;;
45382;SDS011;42455;51.660;5.824;2023-04-23T16:06:45;3.0;;;1.0;;
45382;SDS011;42455;51.660;5.824;2023-04-23T16:11:52;4.0;;;2.0;;
45382;SDS011;42455;51.660;5.824;2023-04-23T16:16:58;2.0;;;1.0;;
45382;SDS011;42455;51.660;5.824;2023-04-23T16:22:04;2.0;;;1.0;;
45382;SDS011;42455;51.660;5.824;2023-04-23T16:27:11;1.0;;;1.0;;
45382;SDS011;42455;51.660;5.824;2023-04-23T16:32:17;3.0;;;2.0;;
45382;SDS011;42455;51.660;5.824;2023-04-23T16:37:22;4.0;;;2.0;;
45382;SDS011;42455;51.660;5.824;2023-04-23T16:42:28;4.0;;;2.0;;
45382;SDS011;42455;51.660;5.824;2023-04-23T16:47:34;3.0;;;2.0;;
45382;SDS011;42455;51.660;5.824;2023-04-23T16:52:40;2.0;;;1.0;;
45382;SDS011;42455;51.660;5.824;2023-04-23T16:57:46;2.0;;;1.0;;
45382;SDS011;42455;51.660;5.824;2023-04-23T17:02:52;3.0;;;2.0;;
45382;SDS011;42455;51.660;5.824;2023-04-23T17:07:58;3.5;;;2.0;;
45382;SDS011;42455;51.660;5.824;2023-04-23T17:13:04;2.0;;;2.0;;
45382;SDS011;42455;51.660;5.824;2023-04-23T17:18:10;3.0;;;2.0;;
45382;SDS011;42455;51.660;5.824;2023-04-23T17:23:17;3.0;;;2.0;;
45382;SDS011;42455;51.660;5.824;2023-04-23T17:28:23;3.0;;;2.0;;
45382;SDS011;42455;51.660;5.824;2023-04-23T17:33:29;3.0;;;2.0;;
45382;SDS011;42455;51.660;5.824;2023-04-23T17:38:35;4.0;;;2.0;;
45382;SDS011;42455;51.660;5.824;2023-04-23T17:43:41;3.0;;;2.0;;
45382;SDS011;42455;51.660;5.824;2023-04-23T17:48:48;4.0;;;2.0;;
45382;SDS011;42455;51.660;5.824;2023-04-23T17:53:54;3.0;;;2.0;;
45382;SDS011;42455;51.660;5.824;2023-04-23T17:59:00;3.0;;;2.0;;
45382;SDS011;42455;51.660;5.824;2023-04-23T18:04:06;3.0;;;2.0;;
45382;SDS011;42455;51.660;5.824;2023-04-23T18:09:12;2.0;;;2.0;;
45382;SDS011;42455;51.660;5.824;2023-04-23T18:14:19;3.0;;;2.0;;
45382;SDS011;42455;51.660;5.824;2023-04-23T18:19:25;3.5;;;2.0;;
45382;SDS011;42455;51.660;5.824;2023-04-23T18:24:31;3.0;;;2.0;;
45382;SDS011;42455;51.660;5.824;2023-04-23T18:29:37;3.0;;;2.0;;
45382;SDS011;42455;51.660;5.824;2023-04-23T18:34:43;4.0;;;2.0;;
45382;SDS011;42455;51.660;5.824;2023-04-23T18:39:50;3.0;;;2.0;;
45382;SDS011;42455;51.660;5.824;2023-04-23T18:44:55;3.0;;;2.0;;
45382;SDS011;42455;51.660;5.824;2023-04-23T18:50:07;3.0;;;2.0;;
45382;SDS011;42455;51.660;5.824;2023-04-23T18:55:07;2.0;;;2.0;;
45382;SDS011;42455;51.660;5.824;2023-04-23T19:00:13;3.0;;;2.0;;
45382;SDS011;42455;51.660;5.824;2023-04-23T19:05:19;3.0;;;2.0;;
45382;SDS011;42455;51.660;5.824;2023-04-23T19:10:25;3.5;;;2.0;;
45382;SDS011;42455;51.660;5.824;2023-04-23T19:15:31;3.0;;;2.0;;
45382;SDS011;42455;51.660;5.824;2023-04-23T19:20:38;3.0;;;3.0;;
45382;SDS011;42455;51.660;5.824;2023-04-23T19:25:44;3.0;;;2.0;;
45382;SDS011;42455;51.660;5.824;2023-04-23T19:30:50;1.0;;;1.0;;
45382;SDS011;42455;51.660;5.824;2023-04-23T19:35:56;1.0;;;1.0;;
45382;SDS011;42455;51.660;5.824;2023-04-23T19:41:02;0.0;;;0.0;;
45382;SDS011;42455;51.660;5.824;2023-04-23T19:46:09;0.0;;;0.0;;
45382;SDS011;42455;51.660;5.824;2023-04-23T19:51:15;0.0;;;0.0;;
45382;SDS011;42455;51.660;5.824;2023-04-23T19:56:21;1.0;;;0.0;;
45382;SDS011;42455;51.660;5.824;2023-04-23T20:01:27;0.0;;;0.0;;
45382;SDS011;42455;51.660;5.824;2023-04-23T20:06:33;0.0;;;0.0;;
45382;SDS011;42455;51.660;5.824;2023-04-23T20:11:40;0.0;;;0.0;;
45382;SDS011;42455;51.660;5.824;2023-04-23T20:16:46;0.0;;;0.0;;
45382;SDS011;42455;51.660;5.824;2023-04-23T20:21:52;0.0;;;0.0;;
45382;SDS011;42455;51.660;5.824;2023-04-23T20:26:58;0.0;;;0.0;;
45382;SDS011;42455;51.660;5.824;2023-04-23T20:32:05;0.0;;;0.0;;
45382;SDS011;42455;51.660;5.824;2023-04-23T20:37:11;0.0;;;0.0;;
45382;SDS011;42455;51.660;5.824;2023-04-23T20:42:17;0.0;;;0.0;;
45382;SDS011;42455;51.660;5.824;2023-04-23T20:47:22;1.0;;;1.0;;
45382;SDS011;42455;51.660;5.824;2023-04-23T20:52:28;1.0;;;1.0;;
45382;SDS011;42455;51.660;5.824;2023-04-23T20:57:35;2.0;;;1.0;;
45382;SDS011;42455;51.660;5.824;2023-04-23T21:02:40;2.0;;;2.0;;
45382;SDS011;42455;51.660;5.824;2023-04-23T21:07:46;3.0;;;3.0;;
45382;SDS011;42455;51.660;5.824;2023-04-23T21:12:52;3.0;;;2.0;;
45382;SDS011;42455;51.660;5.824;2023-04-23T21:17:58;3.0;;;3.0;;
45382;SDS011;42455;51.660;5.824;2023-04-23T21:23:05;3.0;;;3.0;;
45382;SDS011;42455;51.660;5.824;2023-04-23T21:28:11;3.0;;;3.0;;
45382;SDS011;42455;51.660;5.824;2023-04-23T21:33:18;4.0;;;3.0;;
45382;SDS011;42455;51.660;5.824;2023-04-23T21:38:23;4.0;;;3.0;;
45382;SDS011;42455;51.660;5.824;2023-04-23T21:43:29;4.0;;;3.0;;
45382;SDS011;42455;51.660;5.824;2023-04-23T21:48:36;3.0;;;3.0;;
45382;SDS011;42455;51.660;5.824;2023-04-23T21:53:42;4.0;;;3.0;;
45382;SDS011;42455;51.660;5.824;2023-04-23T21:58:48;4.0;;;3.0;;
45382;SDS011;42455;51.660;5.824;2023-04-23T22:03:54;4.0;;;4.0;;
45382;SDS011;42455;51.660;5.824;2023-04-23T22:09:00;4.0;;;4.0;;
45382;SDS011;42455;51.660;5.824;2023-04-23T22:14:07;5.0;;;4.0;;
45382;SDS011;42455;51.660;5.824;2023-04-23T22:19:13;6.0;;;5.0;;
45382;SDS011;42455;51.660;5.824;2023-04-23T22:24:19;6.0;;;5.0;;
45382;SDS011;42455;51.660;5.824;2023-04-23T22:29:25;7.0;;;6.0;;
45382;SDS011;42455;51.660;5.824;2023-04-23T22:34:32;8.0;;;7.0;;
45382;SDS011;42455;51.660;5.824;2023-04-23T22:39:38;8.0;;;7.0;;
45382;SDS011;42455;51.660;5.824;2023-04-23T22:44:44;8.0;;;7.0;;
45382;SDS011;42455;51.660;5.824;2023-04-23T22:49:49;8.0;;;7.0;;
45382;SDS011;42455;51.660;5.824;2023-04-23T22:54:55;8.0;;;7.0;;
45382;SDS011;42455;51.660;5.824;2023-04-23T23:00:01;8.0;;;8.0;;
45382;SDS011;42455;51.660;5.824;2023-04-23T23:05:07;8.0;;;7.0;;
45382;SDS011;42455;51.660;5.824;2023-04-23T23:10:13;7.5;;;7.0;;
45382;SDS011;42455;51.660;5.824;2023-04-23T23:15:20;7.0;;;7.0;;
45382;SDS011;42455;51.660;5.824;2023-04-23T23:20:26;8.0;;;8.0;;
45382;SDS011;42455;51.660;5.824;2023-04-23T23:25:32;9.0;;;8.0;;
45382;SDS011;42455;51.660;5.824;2023-04-23T23:30:38;9.0;;;8.0;;
45382;SDS011;42455;51.660;5.824;2023-04-23T23:35:44;8.0;;;7.0;;
45382;SDS011;42455;51.660;5.824;2023-04-23T23:40:50;8.0;;;7.0;;
45382;SDS011;42455;51.660;5.824;2023-04-23T23:45:57;7.0;;;6.0;;
45382;SDS011;42455;51.660;5.824;2023-04-23T23:51:03;6.0;;;6.0;;
45382;SDS011;42455;51.660;5.824;2023-04-23T23:56:09;5.0;;;5.0;;
